Time;durP1;ratioP1;P1;durP2;ratioP2;P2;SDS_P1;SDS_P2;PMS_P1;PMS_P2;Temp;Humidity;BMP_temperature;BMP_pressure;BME280_temperature;BME280_humidity;BME280_pressure;Samples;Min_cycle;Max_cycle;Signal;HPM_P1;HPM_P2
2022/07/15 00:00:32;;;;;;;2.70;1.60;;;16.50;84.40;;;;;;2073253;28;20369;-75
2022/07/15 00:01:33;;;;;;;4.25;1.88;;;16.50;83.70;;;;;;2073427;28;20099;-74
2022/07/15 00:02:35;;;;;;;4.63;1.48;;;16.50;84.00;;;;;;2081164;28;20052;-73
2022/07/15 00:03:35;;;;;;;3.15;1.60;;;16.50;84.40;;;;;;2082167;28;20028;-73
2022/07/15 00:04:36;;;;;;;4.28;1.65;;;16.40;86.10;;;;;;2080945;28;20964;-78
2022/07/15 00:05:37;;;;;;;2.50;1.60;;;16.40;86.70;;;;;;2081209;28;20096;-74
2022/07/15 00:06:37;;;;;;;5.15;1.63;;;16.40;87.50;;;;;;2082242;28;20551;-74
2022/07/15 00:07:38;;;;;;;3.90;1.50;;;16.40;87.90;;;;;;2082080;28;20495;-74
2022/07/15 00:08:39;;;;;;;5.10;2.00;;;16.40;87.70;;;;;;2082570;28;20622;-75
2022/07/15 00:10:59;;;;;;;2.83;1.52;;;16.30;85.80;;;;;;2076207;28;20084;-74
2022/07/15 00:12:00;;;;;;;3.13;1.70;;;16.30;86.70;;;;;;2082529;28;20103;-75
2022/07/15 00:13:02;;;;;;;2.63;1.58;;;16.20;87.00;;;;;;2082402;28;20040;-74
2022/07/15 00:14:02;;;;;;;2.33;1.70;;;16.20;87.30;;;;;;2080778;28;20033;-76
2022/07/15 00:15:04;;;;;;;4.50;1.90;;;16.20;87.40;;;;;;2081147;28;20029;-75
2022/07/15 00:16:04;;;;;;;3.00;1.63;;;16.20;88.10;;;;;;2073031;28;20730;-75
2022/07/15 00:17:06;;;;;;;2.50;1.63;;;16.20;87.00;;;;;;2072861;28;20117;-75
2022/07/15 00:18:07;;;;;;;2.15;1.55;;;16.20;87.20;;;;;;2081188;28;20029;-75
2022/07/15 00:19:07;;;;;;;2.78;1.83;;;16.10;87.90;;;;;;2080689;28;20124;-75
2022/07/15 00:20:10;;;;;;;2.78;1.75;;;16.10;88.60;;;;;;2081118;28;20081;-75
2022/07/15 00:21:10;;;;;;;2.35;1.50;;;16.10;89.00;;;;;;2078878;28;20489;-73
2022/07/15 00:22:11;;;;;;;2.70;1.80;;;16.10;88.80;;;;;;2080000;28;20038;-73
2022/07/15 00:23:12;;;;;;;2.17;1.55;;;16.10;88.90;;;;;;2088994;28;20120;-75
2022/07/15 00:24:13;;;;;;;3.30;1.70;;;16.00;89.30;;;;;;2079868;28;20068;-73
2022/07/15 00:25:15;;;;;;;2.80;1.70;;;16.00;89.60;;;;;;2082949;28;20056;-73
2022/07/15 00:26:16;;;;;;;2.42;1.70;;;16.00;89.90;;;;;;2082370;28;20049;-73
2022/07/15 00:27:17;;;;;;;2.75;1.70;;;16.00;90.10;;;;;;2075212;28;20034;-74
2022/07/15 00:28:18;;;;;;;4.72;1.60;;;15.90;90.30;;;;;;2074682;28;20022;-73
2022/07/15 00:29:18;;;;;;;3.33;1.80;;;15.90;90.40;;;;;;2077238;28;20026;-75
2022/07/15 00:30:20;;;;;;;3.60;1.65;;;15.90;90.40;;;;;;2082563;28;20017;-74
2022/07/15 00:31:20;;;;;;;3.78;1.65;;;15.90;90.60;;;;;;2082136;28;20061;-76
2022/07/15 00:32:22;;;;;;;2.90;1.60;;;15.80;90.70;;;;;;2081351;28;20120;-75
2022/07/15 00:33:23;;;;;;;3.53;1.60;;;15.80;90.70;;;;;;2081225;28;20584;-75
2022/07/15 00:34:24;;;;;;;2.97;1.70;;;15.80;90.80;;;;;;2072416;28;20036;-75
2022/07/15 00:35:25;;;;;;;2.25;1.50;;;15.80;90.80;;;;;;2072596;28;20038;-74
2022/07/15 00:36:26;;;;;;;2.88;1.50;;;15.80;90.80;;;;;;2081092;28;20037;-73
2022/07/15 00:37:27;;;;;;;1.60;1.50;;;15.80;90.80;;;;;;2080263;28;20041;-74
2022/07/15 00:38:27;;;;;;;3.38;1.67;;;15.80;90.80;;;;;;2072454;28;20440;-73
2022/07/15 00:39:28;;;;;;;3.05;1.60;;;15.80;90.80;;;;;;2064183;28;20050;-74
2022/07/15 00:40:29;;;;;;;2.90;1.70;;;15.80;90.90;;;;;;2064270;28;20030;-74
2022/07/15 00:41:41;;;;;;;2.88;1.60;;;15.80;90.90;;;;;;2072411;28;20026;-74
2022/07/15 00:42:45;;;;;;;2.60;1.42;;;15.70;91.00;;;;;;2081087;28;20040;-73
2022/07/15 00:43:46;;;;;;;3.05;1.63;;;15.70;91.10;;;;;;2081182;28;20061;-74
2022/07/15 00:44:46;;;;;;;1.50;1.40;;;15.70;91.20;;;;;;2072143;28;20034;-74
2022/07/15 00:45:47;;;;;;;3.45;1.60;;;15.70;91.10;;;;;;2072114;28;20503;-75
2022/07/15 00:46:48;;;;;;;3.72;1.60;;;15.70;91.10;;;;;;2080398;28;20116;-73
2022/07/15 00:47:56;;;;;;;3.47;1.48;;;15.70;91.10;;;;;;2072267;28;20084;-75
2022/07/15 00:48:58;;;;;;;2.40;1.70;;;15.70;91.20;;;;;;2072864;28;20042;-75
2022/07/15 00:49:58;;;;;;;2.50;1.50;;;15.70;91.40;;;;;;2072149;28;20029;-74
2022/07/15 00:50:59;;;;;;;5.28;1.90;;;15.70;91.50;;;;;;2073039;28;20095;-76
2022/07/15 00:52:01;;;;;;;1.92;1.60;;;15.70;91.50;;;;;;2072142;28;20116;-74
2022/07/15 00:53:14;;;;;;;3.15;1.45;;;15.70;91.60;;;;;;2072726;28;20029;-75
2022/07/15 00:54:16;;;;;;;5.40;1.60;;;15.70;91.60;;;;;;2083285;28;20037;-74
2022/07/15 00:55:18;;;;;;;2.20;1.50;;;15.70;91.60;;;;;;2074915;28;20050;-75
2022/07/15 00:56:22;;;;;;;4.68;1.70;;;15.60;91.80;;;;;;2075522;28;20018;-75
2022/07/15 00:57:24;;;;;;;2.53;1.50;;;15.60;92.10;;;;;;2082672;28;20715;-75
2022/07/15 00:58:26;;;;;;;2.40;1.40;;;15.60;92.20;;;;;;2083012;28;20022;-74
2022/07/15 00:59:32;;;;;;;1.98;1.45;;;15.60;92.30;;;;;;2082309;28;20068;-76
2022/07/15 01:00:33;;;;;;;2.92;1.70;;;15.60;92.40;;;;;;2072476;28;20516;-75
2022/07/15 01:01:35;;;;;;;2.50;1.42;;;15.60;92.50;;;;;;2072215;28;20391;-75
2022/07/15 01:02:36;;;;;;;1.58;1.40;;;15.60;92.50;;;;;;2081095;28;20098;-74
2022/07/15 01:03:38;;;;;;;3.58;1.50;;;15.60;92.60;;;;;;2080374;28;20047;-74
2022/07/15 01:04:40;;;;;;;3.58;1.45;;;15.60;92.70;;;;;;2072194;28;20037;-74
2022/07/15 01:05:41;;;;;;;2.05;1.40;;;15.50;92.60;;;;;;2072851;28;20034;-74
2022/07/15 01:06:42;;;;;;;2.28;1.67;;;15.50;92.50;;;;;;2072295;28;20065;-75
2022/07/15 01:07:43;;;;;;;2.50;1.45;;;15.50;92.70;;;;;;2072650;28;20130;-75
2022/07/15 01:08:44;;;;;;;4.57;1.58;;;15.40;92.60;;;;;;2072364;28;20552;-75
2022/07/15 01:09:47;;;;;;;2.95;1.60;;;15.40;92.40;;;;;;2072353;28;20030;-75
2022/07/15 01:10:49;;;;;;;3.08;1.73;;;15.40;92.40;;;;;;2084035;28;20032;-75
2022/07/15 01:11:50;;;;;;;2.83;1.50;;;15.40;92.60;;;;;;2074679;28;20127;-76
2022/07/15 01:12:53;;;;;;;4.80;1.50;;;15.40;92.80;;;;;;2063928;28;20487;-75
2022/07/15 01:14:01;;;;;;;2.42;1.60;;;15.30;92.70;;;;;;2064949;28;20034;-75
2022/07/15 01:15:02;;;;;;;2.75;1.58;;;15.30;92.80;;;;;;2072052;28;20087;-74
2022/07/15 01:16:04;;;;;;;2.78;1.33;;;15.30;92.80;;;;;;2072159;28;20697;-74
2022/07/15 01:17:11;;;;;;;3.35;1.52;;;15.30;93.00;;;;;;2072052;28;20128;-76
2022/07/15 01:18:15;;;;;;;4.30;1.60;;;15.30;93.10;;;;;;2071856;28;20062;-76
2022/07/15 01:19:17;;;;;;;2.63;1.30;;;15.30;93.10;;;;;;2072021;28;20105;-76
2022/07/15 01:20:19;;;;;;;3.13;1.50;;;15.30;93.30;;;;;;2071736;28;20150;-75
2022/07/15 01:21:32;;;;;;;4.95;1.60;;;15.30;93.30;;;;;;2073191;28;20067;-75
2022/07/15 01:22:34;;;;;;;2.38;1.55;;;15.20;93.40;;;;;;2079803;28;20014;-75
2022/07/15 01:23:36;;;;;;;3.30;1.83;;;15.20;93.40;;;;;;2071932;28;20487;-75
2022/07/15 01:24:45;;;;;;;3.07;1.70;;;15.20;93.30;;;;;;2072914;28;20697;-76
2022/07/15 01:25:53;;;;;;;2.08;1.60;;;15.20;93.30;;;;;;2071732;28;20269;-76
2022/07/15 01:26:54;;;;;;;2.25;1.52;;;15.10;93.30;;;;;;2063802;28;20070;-76
2022/07/15 01:27:56;;;;;;;4.47;1.60;;;15.10;93.40;;;;;;2063977;28;20049;-75
2022/07/15 01:29:00;;;;;;;4.32;1.85;;;15.10;93.60;;;;;;2064043;28;20644;-75
2022/07/15 01:30:01;;;;;;;2.58;1.90;;;15.10;93.50;;;;;;2071996;28;20165;-75
2022/07/15 01:31:04;;;;;;;3.90;1.95;;;15.10;93.60;;;;;;2071464;28;20037;-75
2022/07/15 01:32:06;;;;;;;3.30;1.58;;;15.10;93.00;;;;;;2063962;28;20042;-74
2022/07/15 01:33:07;;;;;;;2.53;1.50;;;15.00;92.90;;;;;;2071746;28;20041;-72
2022/07/15 01:34:08;;;;;;;4.03;1.80;;;15.00;92.90;;;;;;2063267;28;20045;-74
2022/07/15 01:35:10;;;;;;;3.25;1.58;;;15.00;92.80;;;;;;2055855;28;20066;-76
2022/07/15 01:36:14;;;;;;;2.55;1.70;;;15.00;92.90;;;;;;2063985;28;20029;-75
2022/07/15 01:37:20;;;;;;;2.38;1.60;;;15.00;92.80;;;;;;2072309;28;20388;-76
2022/07/15 01:38:28;;;;;;;3.15;1.50;;;15.00;92.70;;;;;;2063487;28;20497;-75
2022/07/15 01:39:34;;;;;;;3.90;1.95;;;15.00;92.80;;;;;;2057920;28;20489;-74
2022/07/15 01:40:35;;;;;;;3.00;1.73;;;15.00;92.60;;;;;;2071548;28;20028;-74
2022/07/15 01:41:37;;;;;;;2.75;1.52;;;15.00;92.70;;;;;;2079857;28;20429;-75
2022/07/15 01:42:42;;;;;;;4.40;2.10;;;15.00;92.70;;;;;;2063405;28;20117;-75
2022/07/15 01:43:45;;;;;;;5.45;2.00;;;15.00;92.90;;;;;;2056735;28;20065;-74
2022/07/15 01:44:46;;;;;;;3.22;1.75;;;15.00;92.90;;;;;;2063537;28;20129;-74
2022/07/15 01:45:48;;;;;;;2.88;1.80;;;15.00;93.20;;;;;;2063625;28;20030;-74
2022/07/15 01:46:54;;;;;;;2.78;1.45;;;15.00;93.40;;;;;;2056265;28;20026;-72
2022/07/15 01:48:00;;;;;;;3.85;1.50;;;15.00;93.70;;;;;;2065779;28;20444;-74
2022/07/15 01:49:29;;;;;;;4.60;1.60;;;15.00;94.10;;;;;;2073615;28;20045;-73
2022/07/15 01:50:45;;;;;;;2.95;1.40;;;14.90;94.20;;;;;;2071778;28;20046;-74
2022/07/15 01:51:50;;;;;;;4.80;1.55;;;14.90;94.40;;;;;;2065824;28;20026;-75
2022/07/15 01:52:51;;;;;;;2.92;1.42;;;14.90;94.90;;;;;;2071316;28;20108;-74
2022/07/15 01:53:52;;;;;;;2.95;1.50;;;14.80;94.90;;;;;;2071227;28;20033;-75
2022/07/15 01:54:53;;;;;;;2.17;1.42;;;14.90;94.60;;;;;;2071374;28;20040;-75
2022/07/15 01:55:54;;;;;;;1.70;1.50;;;14.80;94.60;;;;;;2071520;28;20535;-75
2022/07/15 01:56:55;;;;;;;3.20;1.60;;;14.80;94.80;;;;;;2079687;28;20573;-74
2022/07/15 01:57:57;;;;;;;3.30;1.40;;;14.80;94.90;;;;;;2071518;28;20037;-75
2022/07/15 01:58:58;;;;;;;3.42;1.60;;;14.80;95.20;;;;;;2071554;28;20068;-75
2022/07/15 01:59:59;;;;;;;3.47;1.90;;;14.70;95.00;;;;;;2071694;28;20030;-75
2022/07/15 02:01:20;;;;;;;3.38;2.10;;;14.70;94.90;;;;;;2075066;28;20025;-76
2022/07/15 02:02:22;;;;;;;3.85;2.17;;;14.70;95.00;;;;;;2072018;28;20831;-74
2022/07/15 02:03:22;;;;;;;3.95;1.70;;;14.70;95.00;;;;;;2071738;28;20030;-74
2022/07/15 02:04:25;;;;;;;2.33;1.75;;;14.70;95.20;;;;;;2071795;28;20145;-75
2022/07/15 02:05:26;;;;;;;3.33;1.90;;;14.70;95.50;;;;;;2071773;28;20030;-75
2022/07/15 02:06:29;;;;;;;3.00;1.73;;;14.70;95.90;;;;;;2071623;28;20030;-74
2022/07/15 02:07:30;;;;;;;2.40;1.63;;;14.70;95.90;;;;;;2063370;28;20505;-75
2022/07/15 02:08:31;;;;;;;3.42;1.95;;;14.70;96.00;;;;;;2063321;28;20026;-75
2022/07/15 02:09:32;;;;;;;3.70;1.80;;;14.70;95.50;;;;;;2071445;28;20120;-75
2022/07/15 02:10:41;;;;;;;3.85;1.70;;;14.70;95.30;;;;;;2071675;28;20033;-73
2022/07/15 02:11:48;;;;;;;3.35;1.67;;;14.60;95.10;;;;;;2073628;28;20033;-75
2022/07/15 02:12:49;;;;;;;2.28;1.58;;;14.60;95.20;;;;;;2063251;28;20473;-74
2022/07/15 02:13:59;;;;;;;2.40;1.50;;;14.60;95.10;;;;;;2065697;28;20030;-75
2022/07/15 02:15:00;;;;;;;2.92;1.35;;;14.60;95.10;;;;;;2071699;28;20034;-74
2022/07/15 02:16:12;;;;;;;2.47;1.80;;;14.60;95.20;;;;;;2073617;28;20059;-75
2022/07/15 02:17:13;;;;;;;2.50;1.80;;;14.60;95.30;;;;;;2079729;28;20026;-73
2022/07/15 02:18:16;;;;;;;2.28;1.60;;;14.60;95.20;;;;;;2071310;28;20101;-75
2022/07/15 02:19:17;;;;;;;3.72;1.70;;;14.60;95.10;;;;;;2071563;28;20077;-74
2022/07/15 02:20:17;;;;;;;4.70;1.80;;;14.50;95.10;;;;;;2071477;28;20030;-74
2022/07/15 02:21:18;;;;;;;2.17;1.60;;;14.50;95.20;;;;;;2071531;28;20056;-74
2022/07/15 02:22:19;;;;;;;3.92;1.60;;;14.50;95.30;;;;;;2071393;28;20144;-74
2022/07/15 02:23:20;;;;;;;1.88;1.40;;;14.50;95.50;;;;;;2071551;28;20177;-74
2022/07/15 02:24:20;;;;;;;4.38;1.83;;;14.50;95.70;;;;;;2079333;28;20099;-74
2022/07/15 02:25:22;;;;;;;3.40;1.55;;;14.50;95.70;;;;;;2071630;28;20397;-74
2022/07/15 02:26:24;;;;;;;4.43;1.52;;;14.50;95.90;;;;;;2071434;28;20655;-74
2022/07/15 02:27:25;;;;;;;2.67;1.40;;;14.50;96.10;;;;;;2071586;28;20030;-73
2022/07/15 02:28:26;;;;;;;2.03;1.40;;;14.50;96.10;;;;;;2063577;28;20054;-75
2022/07/15 02:29:28;;;;;;;3.88;2.00;;;14.50;96.30;;;;;;2063498;28;20531;-73
2022/07/15 02:30:33;;;;;;;3.38;2.00;;;14.50;96.10;;;;;;2071691;28;20018;-76
2022/07/15 02:31:35;;;;;;;2.95;1.83;;;14.40;96.10;;;;;;2079561;28;20049;-75
2022/07/15 02:32:36;;;;;;;3.55;1.80;;;14.50;96.50;;;;;;2071327;28;20076;-75
2022/07/15 02:33:37;;;;;;;2.60;1.90;;;14.40;96.30;;;;;;2071476;28;20022;-76
2022/07/15 02:34:42;;;;;;;2.22;1.60;;;14.40;96.30;;;;;;2071142;28;20125;-74
2022/07/15 02:35:43;;;;;;;2.90;1.80;;;14.40;96.50;;;;;;2063285;28;20078;-75
2022/07/15 02:36:44;;;;;;;3.55;1.55;;;14.40;96.90;;;;;;2063376;28;20449;-75
2022/07/15 02:37:45;;;;;;;5.53;1.40;;;14.40;97.10;;;;;;2071365;28;20080;-74
2022/07/15 02:38:47;;;;;;;2.13;1.42;;;14.40;97.50;;;;;;2071158;28;20049;-74
2022/07/15 02:39:50;;;;;;;2.92;1.40;;;14.40;97.60;;;;;;2071821;28;20037;-74
2022/07/15 02:40:50;;;;;;;1.85;1.30;;;14.40;97.60;;;;;;2071186;28;20036;-75
2022/07/15 02:41:51;;;;;;;3.45;1.52;;;14.40;97.60;;;;;;2071436;28;20018;-74
2022/07/15 02:42:54;;;;;;;4.07;1.60;;;14.40;97.60;;;;;;2071368;28;20543;-73
2022/07/15 02:43:55;;;;;;;5.68;1.50;;;14.40;97.70;;;;;;2063515;28;20041;-74
2022/07/15 02:44:56;;;;;;;4.97;1.40;;;14.40;97.80;;;;;;2063645;28;20033;-74
2022/07/15 02:45:57;;;;;;;4.20;1.50;;;14.40;97.80;;;;;;2063332;28;20122;-74
2022/07/15 02:47:00;;;;;;;2.30;1.50;;;14.30;97.90;;;;;;2071618;28;20479;-75
2022/07/15 02:48:06;;;;;;;4.30;1.33;;;14.30;98.10;;;;;;2071133;28;20758;-76
2022/07/15 02:49:10;;;;;;;1.83;1.33;;;14.30;98.30;;;;;;2072076;28;20030;-76
2022/07/15 02:50:14;;;;;;;2.13;1.45;;;14.30;98.60;;;;;;2071204;28;20030;-76
2022/07/15 02:51:15;;;;;;;1.50;1.40;;;14.30;98.90;;;;;;2071533;28;20018;-76
2022/07/15 02:52:16;;;;;;;1.40;1.30;;;14.30;99.00;;;;;;2071211;28;20029;-75
2022/07/15 02:53:25;;;;;;;2.83;1.42;;;14.30;99.20;;;;;;2071852;28;20021;-73
2022/07/15 02:54:26;;;;;;;3.50;1.60;;;14.30;99.20;;;;;;2070736;28;20424;-76
2022/07/15 02:55:27;;;;;;;2.10;1.40;;;14.30;99.30;;;;;;2071482;28;20026;-73
2022/07/15 02:56:28;;;;;;;2.72;1.60;;;14.30;99.30;;;;;;2079788;28;20458;-74
2022/07/15 02:57:28;;;;;;;3.08;1.50;;;14.30;99.50;;;;;;2071600;28;20026;-74
2022/07/15 02:58:31;;;;;;;3.00;1.40;;;14.30;99.60;;;;;;2071305;28;20033;-74
2022/07/15 02:59:33;;;;;;;3.30;1.48;;;14.30;99.70;;;;;;2063083;28;20054;-74
2022/07/15 03:00:34;;;;;;;3.30;1.40;;;14.30;99.70;;;;;;2063518;28;20029;-74
2022/07/15 03:01:37;;;;;;;2.55;1.40;;;14.30;99.40;;;;;;2072666;28;20773;-74
2022/07/15 03:02:38;;;;;;;2.45;1.40;;;14.30;99.10;;;;;;2064538;28;20050;-74
2022/07/15 03:03:42;;;;;;;1.95;1.35;;;14.30;99.10;;;;;;2072528;28;20038;-74
2022/07/15 03:04:48;;;;;;;4.88;1.55;;;14.30;99.10;;;;;;2064355;28;20034;-75
2022/07/15 03:05:49;;;;;;;2.65;1.48;;;14.30;98.50;;;;;;2065327;28;20058;-75
2022/07/15 03:06:50;;;;;;;4.22;1.70;;;14.30;98.10;;;;;;2072750;28;20057;-75
2022/07/15 03:07:53;;;;;;;2.97;1.73;;;14.30;98.20;;;;;;2072877;28;20033;-74
2022/07/15 03:08:55;;;;;;;1.88;1.45;;;14.30;98.10;;;;;;2072502;28;20022;-74
2022/07/15 03:09:56;;;;;;;4.32;1.88;;;14.20;98.00;;;;;;2072762;28;20076;-74
2022/07/15 03:10:56;;;;;;;1.88;1.40;;;14.20;98.00;;;;;;2072777;28;20057;-75
2022/07/15 03:11:57;;;;;;;2.33;1.40;;;14.20;98.10;;;;;;2064559;28;20136;-74
2022/07/15 03:12:59;;;;;;;5.75;1.73;;;14.20;98.10;;;;;;2073345;28;20032;-74
2022/07/15 03:14:01;;;;;;;4.25;1.70;;;14.20;98.20;;;;;;2072501;28;20523;-74
2022/07/15 03:15:06;;;;;;;3.47;1.63;;;14.20;98.40;;;;;;2073511;28;20030;-74
2022/07/15 03:16:09;;;;;;;2.25;1.60;;;14.20;98.60;;;;;;2072861;28;20026;-74
2022/07/15 03:17:12;;;;;;;2.00;1.42;;;14.20;98.90;;;;;;2072979;28;20048;-75
2022/07/15 03:18:12;;;;;;;4.40;1.58;;;14.20;99.40;;;;;;2072812;28;20046;-74
2022/07/15 03:19:13;;;;;;;3.83;1.60;;;14.20;99.80;;;;;;2073021;28;20034;-73
2022/07/15 03:20:15;;;;;;;2.38;1.58;;;14.20;99.90;;;;;;2064506;28;20069;-74
2022/07/15 03:21:22;;;;;;;2.60;1.67;;;14.20;99.90;;;;;;2066366;28;20090;-73
2022/07/15 03:22:24;;;;;;;3.13;1.60;;;14.20;99.90;;;;;;2080569;28;20030;-75
2022/07/15 03:23:26;;;;;;;3.65;1.58;;;14.10;99.90;;;;;;2072579;28;20516;-74
2022/07/15 03:24:28;;;;;;;3.40;1.65;;;14.10;99.90;;;;;;2064253;28;20038;-74
2022/07/15 03:25:31;;;;;;;5.97;1.80;;;14.10;99.90;;;;;;2064596;28;20030;-74
2022/07/15 03:26:37;;;;;;;3.72;1.40;;;14.10;99.90;;;;;;2073804;28;20464;-75
2022/07/15 03:27:38;;;;;;;2.65;1.58;;;14.10;99.90;;;;;;2080851;28;20036;-74
2022/07/15 03:28:41;;;;;;;5.65;1.70;;;14.10;99.60;;;;;;2080982;28;20033;-74
2022/07/15 03:29:43;;;;;;;3.63;1.70;;;14.10;99.40;;;;;;2072528;28;20440;-75
2022/07/15 03:30:46;;;;;;;4.28;1.73;;;14.10;99.30;;;;;;2073054;28;20053;-73
2022/07/15 03:31:48;;;;;;;5.60;1.85;;;14.10;99.10;;;;;;2064206;28;20469;-74
2022/07/15 03:32:56;;;;;;;4.22;1.70;;;14.10;99.00;;;;;;2058184;28;20493;-74
2022/07/15 03:33:56;;;;;;;5.20;1.75;;;14.10;99.00;;;;;;2072523;28;20117;-74
2022/07/15 03:35:00;;;;;;;2.45;1.50;;;14.10;99.00;;;;;;2072440;28;20034;-74
2022/07/15 03:36:05;;;;;;;2.25;1.52;;;14.10;99.00;;;;;;2072751;28;20104;-74
2022/07/15 03:37:06;;;;;;;2.90;1.60;;;14.10;99.00;;;;;;2072559;28;20076;-74
2022/07/15 03:38:10;;;;;;;3.40;1.73;;;14.10;99.00;;;;;;2073932;28;20040;-75
2022/07/15 03:39:11;;;;;;;3.15;1.70;;;14.10;98.90;;;;;;2081834;28;20449;-76
2022/07/15 03:40:12;;;;;;;3.25;1.70;;;14.10;99.00;;;;;;2081099;28;20033;-76
2022/07/15 03:41:12;;;;;;;4.00;1.73;;;14.10;98.90;;;;;;2081039;28;20040;-74
2022/07/15 03:42:13;;;;;;;3.60;1.60;;;14.10;98.90;;;;;;2064727;28;20030;-76
2022/07/15 03:43:16;;;;;;;4.03;1.70;;;14.10;98.90;;;;;;2065235;28;20023;-75
2022/07/15 03:44:21;;;;;;;2.17;1.70;;;14.20;98.90;;;;;;2072217;28;20514;-76
2022/07/15 03:45:21;;;;;;;5.22;1.80;;;14.10;98.90;;;;;;2072698;28;20101;-75
2022/07/15 03:46:36;;;;;;;3.92;1.73;;;14.20;98.90;;;;;;2080841;28;20030;-75
2022/07/15 03:47:38;;;;;;;3.25;1.70;;;14.20;98.90;;;;;;2080481;28;20080;-75
2022/07/15 03:48:42;;;;;;;4.35;1.83;;;14.20;99.00;;;;;;2065359;28;20030;-75
2022/07/15 03:49:42;;;;;;;3.75;1.63;;;14.20;99.10;;;;;;2064587;28;20034;-75
2022/07/15 03:50:43;;;;;;;4.65;1.80;;;14.20;99.00;;;;;;2072603;28;20038;-75
2022/07/15 03:51:44;;;;;;;3.45;1.80;;;14.20;99.00;;;;;;2072346;28;20022;-75
2022/07/15 03:52:47;;;;;;;4.70;1.73;;;14.20;99.00;;;;;;2064565;28;20030;-75
2022/07/15 03:53:48;;;;;;;4.18;1.90;;;14.20;99.10;;;;;;2072655;28;20080;-75
2022/07/15 03:54:49;;;;;;;6.45;1.95;;;14.20;99.30;;;;;;2064132;28;20046;-76
2022/07/15 03:55:50;;;;;;;4.00;1.80;;;14.20;99.50;;;;;;2072566;28;20594;-76
2022/07/15 03:56:52;;;;;;;3.92;1.80;;;14.20;99.60;;;;;;2072412;28;20022;-76
2022/07/15 03:57:55;;;;;;;4.25;1.98;;;14.20;99.80;;;;;;2064522;28;20756;-75
2022/07/15 03:58:56;;;;;;;3.03;1.90;;;14.20;99.90;;;;;;2073565;28;20090;-76
2022/07/15 03:59:59;;;;;;;3.38;1.75;;;14.20;99.90;;;;;;2073617;28;20029;-74
2022/07/15 04:01:03;;;;;;;2.80;1.80;;;14.30;99.90;;;;;;2074365;28;20102;-75
2022/07/15 04:02:04;;;;;;;3.90;2.05;;;14.30;99.90;;;;;;2072310;28;20033;-75
2022/07/15 04:03:05;;;;;;;6.28;1.90;;;14.30;99.90;;;;;;2073612;28;20056;-75
2022/07/15 04:04:06;;;;;;;4.25;1.90;;;14.30;99.90;;;;;;2081079;28;20041;-73
2022/07/15 04:05:08;;;;;;;3.92;1.88;;;14.30;99.90;;;;;;2072811;28;20045;-75
2022/07/15 04:06:09;;;;;;;5.72;1.90;;;14.30;99.90;;;;;;2064572;28;20065;-74
2022/07/15 04:07:10;;;;;;;4.05;2.20;;;14.40;99.90;;;;;;2072509;28;20699;-74
2022/07/15 04:08:11;;;;;;;5.18;2.00;;;14.40;99.90;;;;;;2072059;28;20033;-74
2022/07/15 04:09:12;;;;;;;2.88;1.80;;;14.50;99.90;;;;;;2072175;28;20045;-75
2022/07/15 04:10:13;;;;;;;2.72;1.77;;;14.50;99.90;;;;;;2081140;28;20043;-75
2022/07/15 04:11:16;;;;;;;3.15;2.00;;;14.50;99.90;;;;;;2082200;28;20398;-75
2022/07/15 04:12:17;;;;;;;3.15;1.90;;;14.60;99.90;;;;;;2073440;28;20079;-74
2022/07/15 04:13:18;;;;;;;3.55;1.77;;;14.70;99.90;;;;;;2072947;28;20507;-76
2022/07/15 04:14:22;;;;;;;4.68;2.00;;;14.80;99.80;;;;;;2080688;28;20029;-75
2022/07/15 04:15:22;;;;;;;3.38;1.80;;;14.90;99.60;;;;;;2080763;28;20052;-73
2022/07/15 04:16:23;;;;;;;4.15;1.90;;;15.10;99.40;;;;;;2072127;28;20623;-72
2022/07/15 04:17:25;;;;;;;4.63;1.90;;;15.40;99.10;;;;;;2064259;28;20049;-74
2022/07/15 04:18:26;;;;;;;3.25;1.80;;;15.70;98.50;;;;;;2072177;28;20034;-74
2022/07/15 04:19:27;;;;;;;5.57;1.80;;;16.00;97.90;;;;;;2072381;28;20056;-75
2022/07/15 04:20:32;;;;;;;2.65;1.60;;;16.30;96.40;;;;;;2064425;28;20063;-74
2022/07/15 04:21:34;;;;;;;3.58;1.50;;;16.60;95.50;;;;;;2064567;28;20026;-74
2022/07/15 04:22:41;;;;;;;2.47;1.70;;;16.90;94.90;;;;;;2072663;28;20088;-73
2022/07/15 04:23:42;;;;;;;2.13;1.48;;;17.30;93.80;;;;;;2080407;28;20213;-74
2022/07/15 04:24:44;;;;;;;4.30;1.70;;;17.70;93.40;;;;;;2072047;28;20030;-74
2022/07/15 04:25:51;;;;;;;3.35;1.95;;;18.00;92.50;;;;;;2064568;28;20038;-74
2022/07/15 04:26:52;;;;;;;3.55;1.58;;;18.20;91.20;;;;;;2064352;28;20524;-74
2022/07/15 04:27:53;;;;;;;4.28;1.60;;;18.40;91.10;;;;;;2072147;28;20030;-74
2022/07/15 04:28:59;;;;;;;3.03;1.77;;;18.60;90.70;;;;;;2080956;28;20030;-73
2022/07/15 04:30:00;;;;;;;4.10;1.77;;;18.80;89.10;;;;;;2081088;28;20040;-73
2022/07/15 04:31:09;;;;;;;3.75;1.73;;;18.60;88.70;;;;;;2072407;28;20037;-74
2022/07/15 04:32:20;;;;;;;4.63;1.80;;;18.60;89.30;;;;;;2065550;28;20026;-74
2022/07/15 04:33:24;;;;;;;3.15;1.52;;;18.70;89.00;;;;;;2064571;28;20074;-73
2022/07/15 04:34:25;;;;;;;2.55;1.63;;;18.90;89.10;;;;;;2065267;28;20064;-73
2022/07/15 04:35:26;;;;;;;4.53;1.55;;;18.90;88.50;;;;;;2064521;28;20591;-73
2022/07/15 04:36:33;;;;;;;5.68;1.70;;;19.10;87.80;;;;;;2066845;28;20148;-73
2022/07/15 04:37:34;;;;;;;3.60;1.70;;;19.20;87.50;;;;;;2074524;28;20071;-73
2022/07/15 04:38:35;;;;;;;5.00;1.50;;;19.30;85.60;;;;;;2066228;28;20173;-75
2022/07/15 04:39:36;;;;;;;3.55;1.70;;;19.20;85.60;;;;;;2057647;28;20023;-79
2022/07/15 04:40:39;;;;;;;3.13;1.42;;;19.50;84.70;;;;;;2071862;28;20129;-76
2022/07/15 04:41:40;;;;;;;3.28;1.60;;;19.80;83.70;;;;;;2071882;28;20523;-74
2022/07/15 04:42:41;;;;;;;3.45;1.50;;;20.10;82.40;;;;;;2063930;28;20023;-74
2022/07/15 04:43:45;;;;;;;2.13;1.38;;;20.20;80.50;;;;;;2071581;28;20080;-74
2022/07/15 04:44:48;;;;;;;4.57;1.60;;;19.90;80.40;;;;;;2063725;28;20034;-74
2022/07/15 04:45:51;;;;;;;4.22;1.90;;;19.60;81.70;;;;;;2071815;28;20492;-75
2022/07/15 04:46:54;;;;;;;5.20;1.70;;;19.60;82.00;;;;;;2071571;28;20776;-75
2022/07/15 04:50:51;;;;;;;4.47;1.50;;;20.60;78.80;;;;;;2074180;28;20121;-75
2022/07/15 04:51:54;;;;;;;5.35;1.70;;;20.70;78.20;;;;;;2071621;28;20382;-74
2022/07/15 04:52:55;;;;;;;4.05;1.80;;;20.30;77.70;;;;;;2071550;28;20059;-75
2022/07/15 04:53:58;;;;;;;5.28;1.60;;;20.20;78.30;;;;;;2079461;28;20569;-72
2022/07/15 04:54:59;;;;;;;5.38;1.60;;;20.10;78.30;;;;;;2080017;28;20495;-73
2022/07/15 04:56:00;;;;;;;3.92;1.70;;;19.90;79.10;;;;;;2072088;28;20048;-73
2022/07/15 04:57:00;;;;;;;4.05;1.70;;;19.80;79.70;;;;;;2064158;28;20568;-72
2022/07/15 04:58:02;;;;;;;8.15;1.98;;;19.80;79.40;;;;;;2071975;28;20022;-76
2022/07/15 04:59:03;;;;;;;4.30;1.60;;;19.70;80.50;;;;;;2072339;28;20065;-74
2022/07/15 05:00:05;;;;;;;3.80;1.50;;;19.50;80.90;;;;;;2064592;28;20709;-73
2022/07/15 05:01:12;;;;;;;3.85;1.60;;;19.60;81.60;;;;;;2072731;28;20046;-74
2022/07/15 05:02:12;;;;;;;20.70;2.75;;;20.10;80.80;;;;;;2064111;28;20101;-74
2022/07/15 05:03:16;;;;;;;7.13;1.83;;;20.20;80.00;;;;;;2064552;28;20409;-74
2022/07/15 05:04:16;;;;;;;5.40;1.70;;;20.20;79.50;;;;;;2072205;28;20029;-75
2022/07/15 05:05:18;;;;;;;3.22;1.70;;;20.10;79.50;;;;;;2072512;28;20022;-75
2022/07/15 05:06:19;;;;;;;4.20;1.80;;;19.90;80.20;;;;;;2064455;28;20026;-75
2022/07/15 05:07:20;;;;;;;2.65;1.40;;;19.90;80.80;;;;;;2071620;28;20064;-72
2022/07/15 05:08:22;;;;;;;3.45;1.60;;;20.10;80.20;;;;;;2063524;28;20025;-72
2022/07/15 05:09:27;;;;;;;3.00;1.50;;;20.30;79.40;;;;;;2065036;28;20015;-72
2022/07/15 05:10:28;;;;;;;3.85;1.60;;;20.40;79.00;;;;;;2071786;28;20022;-73
2022/07/15 05:11:34;;;;;;;5.72;1.80;;;20.10;78.60;;;;;;2072391;28;20037;-72
2022/07/15 05:12:36;;;;;;;4.55;1.60;;;20.00;79.40;;;;;;2063631;28;20106;-71
2022/07/15 05:13:37;;;;;;;3.08;1.50;;;20.00;79.80;;;;;;2064316;28;20628;-72
2022/07/15 05:14:40;;;;;;;2.33;1.30;;;19.90;80.00;;;;;;2071281;28;20038;-71
2022/07/15 05:15:41;;;;;;;3.67;1.63;;;20.10;80.60;;;;;;2071810;28;20060;-73
2022/07/15 05:16:48;;;;;;;2.75;1.60;;;20.50;78.90;;;;;;2079714;28;20049;-72
2022/07/15 05:17:49;;;;;;;3.40;1.70;;;20.50;77.80;;;;;;2071440;28;20497;-72
2022/07/15 05:18:54;;;;;;;3.92;1.60;;;20.20;78.10;;;;;;2071933;28;20603;-72
2022/07/15 05:19:55;;;;;;;5.38;1.70;;;20.20;79.00;;;;;;2071306;28;20021;-72
2022/07/15 05:20:57;;;;;;;6.35;2.08;;;20.30;78.40;;;;;;2063482;28;20029;-72
2022/07/15 05:22:02;;;;;;;4.72;1.63;;;20.30;79.00;;;;;;2071620;28;20107;-72
2022/07/15 05:23:05;;;;;;;6.63;2.28;;;20.70;77.90;;;;;;2071319;28;20030;-73
2022/07/15 05:24:11;;;;;;;6.38;2.10;;;20.80;76.80;;;;;;2071724;28;20030;-73
2022/07/15 05:25:12;;;;;;;5.07;1.80;;;20.40;77.40;;;;;;2080356;28;20025;-72
2022/07/15 05:26:14;;;;;;;4.53;1.90;;;20.00;78.10;;;;;;2072314;28;20133;-73
2022/07/15 05:27:18;;;;;;;3.88;1.70;;;20.00;79.30;;;;;;2064705;28;20096;-73
2022/07/15 05:28:22;;;;;;;4.55;1.63;;;20.30;78.70;;;;;;2064027;28;20054;-73
2022/07/15 05:29:24;;;;;;;3.47;1.50;;;20.50;77.40;;;;;;2072083;28;20160;-73
2022/07/15 05:30:27;;;;;;;4.28;1.80;;;20.50;77.80;;;;;;2073034;28;20033;-73